Hlavní strana
METAR-TAF:

METAR-TAF

Letiště :

Basra, Irák

zeměpisná šířka: 30-32-56N, zeměpisná délka: 47-39-45E, výška: 1 m

Aktuální stav počasí

Zpráva byla vytvořena před 30 minutami, v 00:00 UTC
Západojihozápadní vítr 11 kt
Teplota 29°C
Vlhkost vzduchu 33%
Tlak 1001 hPa
Viditelnost 10 km a více
Žádná oblačnost pod 1500 m, nevyskytují se cumulonimby.

METAR: ORMM 230000Z 25011KT CAVOK 29/11 Q1001 NOSIG

Čas: 03:30 (00:30 UTC)

Předpověď počasí

Zpráva byla vytvořena před 2 hodinami a 30 minutami, v 22:00 UTC
Předpověď platná od 23 v 00 UTC do 23 v 24 UTC
Západní vítr 12 kt
Viditelnost 10 km a více
Žádná oblačnost pod 1500 m, nevyskytují se cumulonimby.
Změna
od 23 v 04 UTC do 23 v 06 UTC
Západoseverozápadní vítr 20 kt
Viditelnost: 8000 m

TAF: ORMM 222200Z 2300/2324 28012KT CAVOK BECMG 2304/2306 30020KT 8000 NSC

Stav a předpovědi počasí z více než 4 000 letišť (zprávy METAR a TAF).

Červené a žluté tečky na mapě představují dostupné meteorologické stanice.

Když kurzor umístíte na tečku, zobrazí se název stanice.

Pak kliknutím zobrazíte stav a předpověď počasí.

Chcete-li změnit mapu, kliknutím na zelené tlačítko se znaménkem +mapu přiblížíte, kliknutím na zelené tlačítko se znaménkem – mapu oddálíte a kliknutím na zelené šipky přejdete na sousední mapy.


METAR-TAF: